sensor_id;sensor_type;location;lat;lon;timestamp;P1;durP1;ratioP1;P2;durP2;ratioP2
52962;SDS011;38827;53.024;6.596;2023-06-01T00:01:26;15.75;;;4.82;;
52962;SDS011;38827;53.024;6.596;2023-06-01T00:03:52;17.25;;;5.30;;
52962;SDS011;38827;53.024;6.596;2023-06-01T00:06:17;14.50;;;5.63;;
52962;SDS011;38827;53.024;6.596;2023-06-01T00:08:43;18.10;;;5.03;;
52962;SDS011;38827;53.024;6.596;2023-06-01T00:25:49;18.25;;;5.63;;
52962;SDS011;38827;53.024;6.596;2023-06-01T00:28:33;13.45;;;5.75;;
52962;SDS011;38827;53.024;6.596;2023-06-01T00:31:17;15.25;;;6.00;;
52962;SDS011;38827;53.024;6.596;2023-06-01T00:36:59;14.20;;;5.10;;
52962;SDS011;38827;53.024;6.596;2023-06-01T00:39:24;13.60;;;5.03;;
52962;SDS011;38827;53.024;6.596;2023-06-01T01:02:25;14.60;;;5.78;;
52962;SDS011;38827;53.024;6.596;2023-06-01T01:18:59;12.75;;;5.13;;
52962;SDS011;38827;53.024;6.596;2023-06-01T01:35:35;12.73;;;5.05;;
52962;SDS011;38827;53.024;6.596;2023-06-01T01:38:08;20.35;;;5.93;;
52962;SDS011;38827;53.024;6.596;2023-06-01T01:43:42;17.65;;;5.70;;
52962;SDS011;38827;53.024;6.596;2023-06-01T01:47:25;14.20;;;5.85;;
52962;SDS011;38827;53.024;6.596;2023-06-01T01:53:46;12.13;;;5.20;;
52962;SDS011;38827;53.024;6.596;2023-06-01T02:17:01;15.48;;;5.18;;
52962;SDS011;38827;53.024;6.596;2023-06-01T02:19:28;16.15;;;6.05;;
52962;SDS011;38827;53.024;6.596;2023-06-01T02:21:57;14.77;;;5.65;;
52962;SDS011;38827;53.024;6.596;2023-06-01T02:24:26;18.02;;;5.55;;
52962;SDS011;38827;53.024;6.596;2023-06-01T02:26:54;15.63;;;5.93;;
52962;SDS011;38827;53.024;6.596;2023-06-01T02:29:21;14.57;;;5.97;;
52962;SDS011;38827;53.024;6.596;2023-06-01T02:31:48;19.08;;;6.15;;
52962;SDS011;38827;53.024;6.596;2023-06-01T02:34:17;14.60;;;5.43;;
52962;SDS011;38827;53.024;6.596;2023-06-01T02:36:43;13.38;;;6.20;;
52962;SDS011;38827;53.024;6.596;2023-06-01T02:39:09;13.27;;;6.13;;
52962;SDS011;38827;53.024;6.596;2023-06-01T02:41:35;16.75;;;5.95;;
52962;SDS011;38827;53.024;6.596;2023-06-01T02:51:42;20.20;;;6.60;;
52962;SDS011;38827;53.024;6.596;2023-06-01T02:54:08;12.13;;;5.65;;
52962;SDS011;38827;53.024;6.596;2023-06-01T02:56:33;11.35;;;5.15;;
52962;SDS011;38827;53.024;6.596;2023-06-01T02:58:59;16.00;;;5.03;;
52962;SDS011;38827;53.024;6.596;2023-06-01T03:01:25;11.52;;;5.20;;
52962;SDS011;38827;53.024;6.596;2023-06-01T03:03:52;8.82;;;4.38;;
52962;SDS011;38827;53.024;6.596;2023-06-01T03:06:19;11.30;;;4.30;;
52962;SDS011;38827;53.024;6.596;2023-06-01T03:08:46;13.30;;;4.05;;
52962;SDS011;38827;53.024;6.596;2023-06-01T03:11:41;9.30;;;3.60;;
52962;SDS011;38827;53.024;6.596;2023-06-01T03:14:09;14.35;;;4.20;;
52962;SDS011;38827;53.024;6.596;2023-06-01T03:16:35;14.30;;;4.32;;
52962;SDS011;38827;53.024;6.596;2023-06-01T03:19:00;9.02;;;3.83;;
52962;SDS011;38827;53.024;6.596;2023-06-01T03:21:29;7.95;;;3.63;;
52962;SDS011;38827;53.024;6.596;2023-06-01T03:23:56;12.25;;;4.07;;
52962;SDS011;38827;53.024;6.596;2023-06-01T03:26:25;9.00;;;3.95;;
52962;SDS011;38827;53.024;6.596;2023-06-01T03:28:52;10.98;;;3.55;;
52962;SDS011;38827;53.024;6.596;2023-06-01T03:31:17;12.07;;;4.03;;
52962;SDS011;38827;53.024;6.596;2023-06-01T03:33:43;9.27;;;4.07;;
52962;SDS011;38827;53.024;6.596;2023-06-01T03:36:09;10.07;;;3.70;;
52962;SDS011;38827;53.024;6.596;2023-06-01T03:38:35;8.95;;;3.40;;
52962;SDS011;38827;53.024;6.596;2023-06-01T03:41:01;9.38;;;3.50;;
52962;SDS011;38827;53.024;6.596;2023-06-01T03:43:27;8.35;;;3.65;;
52962;SDS011;38827;53.024;6.596;2023-06-01T03:45:54;12.40;;;3.80;;
52962;SDS011;38827;53.024;6.596;2023-06-01T03:48:19;8.73;;;3.50;;
52962;SDS011;38827;53.024;6.596;2023-06-01T03:50:45;13.80;;;4.45;;
52962;SDS011;38827;53.024;6.596;2023-06-01T04:02:20;9.88;;;4.78;;
52962;SDS011;38827;53.024;6.596;2023-06-01T04:04:48;14.77;;;5.13;;
52962;SDS011;38827;53.024;6.596;2023-06-01T04:07:14;13.68;;;5.10;;
52962;SDS011;38827;53.024;6.596;2023-06-01T04:09:44;12.50;;;4.75;;
52962;SDS011;38827;53.024;6.596;2023-06-01T04:12:10;13.57;;;5.33;;
52962;SDS011;38827;53.024;6.596;2023-06-01T04:14:36;11.23;;;5.15;;
52962;SDS011;38827;53.024;6.596;2023-06-01T04:17:02;12.75;;;4.95;;
52962;SDS011;38827;53.024;6.596;2023-06-01T04:19:32;15.05;;;5.40;;
52962;SDS011;38827;53.024;6.596;2023-06-01T04:21:59;14.65;;;5.63;;
52962;SDS011;38827;53.024;6.596;2023-06-01T04:24:27;12.82;;;5.00;;
52962;SDS011;38827;53.024;6.596;2023-06-01T04:26:53;18.17;;;5.68;;
52962;SDS011;38827;53.024;6.596;2023-06-01T04:29:21;13.35;;;5.97;;
52962;SDS011;38827;53.024;6.596;2023-06-01T04:31:50;12.80;;;5.05;;
52962;SDS011;38827;53.024;6.596;2023-06-01T05:09:39;17.75;;;5.40;;
52962;SDS011;38827;53.024;6.596;2023-06-01T05:12:04;13.73;;;5.10;;
52962;SDS011;38827;53.024;6.596;2023-06-01T05:14:31;12.55;;;4.65;;
52962;SDS011;38827;53.024;6.596;2023-06-01T05:16:57;14.50;;;4.40;;
52962;SDS011;38827;53.024;6.596;2023-06-01T05:19:25;14.23;;;4.65;;
52962;SDS011;38827;53.024;6.596;2023-06-01T05:21:51;13.70;;;4.90;;
52962;SDS011;38827;53.024;6.596;2023-06-01T05:24:25;12.10;;;4.47;;
52962;SDS011;38827;53.024;6.596;2023-06-01T05:26:51;11.48;;;4.55;;
52962;SDS011;38827;53.024;6.596;2023-06-01T05:29:17;14.93;;;4.65;;
52962;SDS011;38827;53.024;6.596;2023-06-01T05:31:43;12.63;;;4.68;;
52962;SDS011;38827;53.024;6.596;2023-06-01T05:34:08;8.95;;;3.83;;
52962;SDS011;38827;53.024;6.596;2023-06-01T05:40:36;9.15;;;3.90;;
52962;SDS011;38827;53.024;6.596;2023-06-01T06:19:43;11.80;;;4.60;;
52962;SDS011;38827;53.024;6.596;2023-06-01T06:25:10;6.93;;;3.67;;
52962;SDS011;38827;53.024;6.596;2023-06-01T06:27:43;10.90;;;4.50;;
52962;SDS011;38827;53.024;6.596;2023-06-01T06:41:54;9.43;;;4.55;;
52962;SDS011;38827;53.024;6.596;2023-06-01T06:44:20;6.75;;;3.97;;
52962;SDS011;38827;53.024;6.596;2023-06-01T06:46:46;8.45;;;3.80;;
52962;SDS011;38827;53.024;6.596;2023-06-01T06:49:11;5.75;;;3.60;;
52962;SDS011;38827;53.024;6.596;2023-06-01T06:51:37;11.07;;;4.18;;
52962;SDS011;38827;53.024;6.596;2023-06-01T06:54:03;14.02;;;4.07;;
52962;SDS011;38827;53.024;6.596;2023-06-01T06:56:30;10.63;;;4.10;;
52962;SDS011;38827;53.024;6.596;2023-06-01T06:58:56;10.85;;;3.92;;
52962;SDS011;38827;53.024;6.596;2023-06-01T07:01:23;9.90;;;4.05;;
52962;SDS011;38827;53.024;6.596;2023-06-01T07:06:18;7.63;;;3.10;;
52962;SDS011;38827;53.024;6.596;2023-06-01T07:08:45;6.32;;;2.90;;
52962;SDS011;38827;53.024;6.596;2023-06-01T07:11:11;5.97;;;2.30;;
52962;SDS011;38827;53.024;6.596;2023-06-01T07:13:37;7.93;;;2.70;;
52962;SDS011;38827;53.024;6.596;2023-06-01T07:16:03;6.53;;;2.30;;
52962;SDS011;38827;53.024;6.596;2023-06-01T07:20:56;3.90;;;2.27;;
52962;SDS011;38827;53.024;6.596;2023-06-01T07:25:48;7.10;;;2.20;;
52962;SDS011;38827;53.024;6.596;2023-06-01T07:28:14;10.13;;;2.45;;
52962;SDS011;38827;53.024;6.596;2023-06-01T07:33:15;7.47;;;2.80;;
52962;SDS011;38827;53.024;6.596;2023-06-01T07:35:41;8.35;;;3.20;;
52962;SDS011;38827;53.024;6.596;2023-06-01T07:38:07;9.13;;;2.88;;
52962;SDS011;38827;53.024;6.596;2023-06-01T07:40:32;9.02;;;2.40;;
52962;SDS011;38827;53.024;6.596;2023-06-01T07:42:58;7.25;;;2.47;;
52962;SDS011;38827;53.024;6.596;2023-06-01T07:45:24;7.28;;;2.35;;
52962;SDS011;38827;53.024;6.596;2023-06-01T07:47:52;5.03;;;2.13;;
52962;SDS011;38827;53.024;6.596;2023-06-01T07:50:18;6.03;;;2.00;;
52962;SDS011;38827;53.024;6.596;2023-06-01T07:55:49;3.72;;;1.73;;
52962;SDS011;38827;53.024;6.596;2023-06-01T07:58:36;5.32;;;1.88;;
52962;SDS011;38827;53.024;6.596;2023-06-01T08:01:14;4.45;;;1.67;;
52962;SDS011;38827;53.024;6.596;2023-06-01T08:03:55;3.97;;;1.90;;
52962;SDS011;38827;53.024;6.596;2023-06-01T08:09:36;7.00;;;1.92;;
52962;SDS011;38827;53.024;6.596;2023-06-01T08:20:52;5.57;;;2.58;;
52962;SDS011;38827;53.024;6.596;2023-06-01T08:34:00;3.97;;;2.33;;
52962;SDS011;38827;53.024;6.596;2023-06-01T08:49:53;3.60;;;1.77;;
52962;SDS011;38827;53.024;6.596;2023-06-01T08:59:54;5.30;;;1.50;;
52962;SDS011;38827;53.024;6.596;2023-06-01T09:02:32;6.13;;;2.55;;
52962;SDS011;38827;53.024;6.596;2023-06-01T09:04:57;5.22;;;2.03;;
52962;SDS011;38827;53.024;6.596;2023-06-01T09:07:24;6.38;;;2.30;;
52962;SDS011;38827;53.024;6.596;2023-06-01T09:09:50;6.30;;;2.43;;
52962;SDS011;38827;53.024;6.596;2023-06-01T09:14:46;7.63;;;3.22;;
52962;SDS011;38827;53.024;6.596;2023-06-01T09:17:13;5.57;;;2.53;;
52962;SDS011;38827;53.024;6.596;2023-06-01T09:19:40;3.70;;;2.03;;
52962;SDS011;38827;53.024;6.596;2023-06-01T09:22:09;6.80;;;2.90;;
52962;SDS011;38827;53.024;6.596;2023-06-01T09:27:51;7.07;;;2.90;;
52962;SDS011;38827;53.024;6.596;2023-06-01T09:30:18;9.68;;;3.20;;
52962;SDS011;38827;53.024;6.596;2023-06-01T09:32:46;9.65;;;4.00;;
52962;SDS011;38827;53.024;6.596;2023-06-01T09:35:16;9.45;;;3.53;;
52962;SDS011;38827;53.024;6.596;2023-06-01T09:38:02;11.98;;;3.15;;
52962;SDS011;38827;53.024;6.596;2023-06-01T09:48:30;11.63;;;4.28;;
52962;SDS011;38827;53.024;6.596;2023-06-01T09:51:02;10.95;;;3.05;;
52962;SDS011;38827;53.024;6.596;2023-06-01T10:00:46;10.60;;;2.85;;
52962;SDS011;38827;53.024;6.596;2023-06-01T10:04:08;13.10;;;2.65;;
52962;SDS011;38827;53.024;6.596;2023-06-01T10:06:38;9.68;;;2.90;;
52962;SDS011;38827;53.024;6.596;2023-06-01T10:09:42;11.02;;;2.97;;
52962;SDS011;38827;53.024;6.596;2023-06-01T10:12:10;12.30;;;2.83;;
52962;SDS011;38827;53.024;6.596;2023-06-01T10:14:37;14.10;;;3.45;;
52962;SDS011;38827;53.024;6.596;2023-06-01T10:17:06;9.00;;;2.70;;
52962;SDS011;38827;53.024;6.596;2023-06-01T10:19:33;12.75;;;2.80;;
52962;SDS011;38827;53.024;6.596;2023-06-01T10:22:02;10.85;;;2.58;;
52962;SDS011;38827;53.024;6.596;2023-06-01T10:24:29;11.73;;;2.70;;
52962;SDS011;38827;53.024;6.596;2023-06-01T10:29:47;8.75;;;2.53;;
52962;SDS011;38827;53.024;6.596;2023-06-01T10:35:05;11.80;;;2.83;;
52962;SDS011;38827;53.024;6.596;2023-06-01T10:37:34;8.50;;;2.70;;
52962;SDS011;38827;53.024;6.596;2023-06-01T10:43:01;8.25;;;2.60;;
52962;SDS011;38827;53.024;6.596;2023-06-01T10:45:48;8.85;;;2.67;;
52962;SDS011;38827;53.024;6.596;2023-06-01T10:48:13;7.45;;;2.50;;
52962;SDS011;38827;53.024;6.596;2023-06-01T10:50:40;7.78;;;2.33;;
52962;SDS011;38827;53.024;6.596;2023-06-01T11:01:43;11.30;;;2.75;;
52962;SDS011;38827;53.024;6.596;2023-06-01T11:04:10;10.95;;;2.67;;
52962;SDS011;38827;53.024;6.596;2023-06-01T11:06:37;14.13;;;3.05;;
52962;SDS011;38827;53.024;6.596;2023-06-01T11:09:05;7.25;;;2.28;;
52962;SDS011;38827;53.024;6.596;2023-06-01T11:14:20;6.03;;;2.22;;
52962;SDS011;38827;53.024;6.596;2023-06-01T11:16:48;7.50;;;2.47;;
52962;SDS011;38827;53.024;6.596;2023-06-01T11:19:22;5.00;;;2.22;;
52962;SDS011;38827;53.024;6.596;2023-06-01T11:21:56;10.32;;;2.65;;
52962;SDS011;38827;53.024;6.596;2023-06-01T11:24:30;8.63;;;2.70;;
52962;SDS011;38827;53.024;6.596;2023-06-01T11:26:59;4.95;;;2.40;;
52962;SDS011;38827;53.024;6.596;2023-06-01T11:29:31;6.95;;;2.30;;
52962;SDS011;38827;53.024;6.596;2023-06-01T11:31:58;7.53;;;3.03;;
52962;SDS011;38827;53.024;6.596;2023-06-01T11:34:46;15.77;;;3.10;;
52962;SDS011;38827;53.024;6.596;2023-06-01T11:39:40;7.88;;;2.65;;
52962;SDS011;38827;53.024;6.596;2023-06-01T11:42:11;9.35;;;2.58;;
52962;SDS011;38827;53.024;6.596;2023-06-01T11:45:59;8.40;;;2.65;;
52962;SDS011;38827;53.024;6.596;2023-06-01T11:48:39;5.85;;;2.47;;
52962;SDS011;38827;53.024;6.596;2023-06-01T11:54:16;9.73;;;2.67;;
52962;SDS011;38827;53.024;6.596;2023-06-01T11:57:00;6.32;;;2.40;;
52962;SDS011;38827;53.024;6.596;2023-06-01T11:59:30;5.75;;;2.22;;
52962;SDS011;38827;53.024;6.596;2023-06-01T12:02:03;5.13;;;2.20;;
52962;SDS011;38827;53.024;6.596;2023-06-01T12:05:05;6.20;;;2.23;;
52962;SDS011;38827;53.024;6.596;2023-06-01T12:07:47;8.57;;;3.25;;
52962;SDS011;38827;53.024;6.596;2023-06-01T12:10:16;9.82;;;2.58;;
52962;SDS011;38827;53.024;6.596;2023-06-01T12:12:43;9.63;;;2.63;;
52962;SDS011;38827;53.024;6.596;2023-06-01T12:15:10;8.10;;;2.40;;
52962;SDS011;38827;53.024;6.596;2023-06-01T12:20:37;7.78;;;2.67;;
52962;SDS011;38827;53.024;6.596;2023-06-01T12:28:24;7.85;;;2.72;;
52962;SDS011;38827;53.024;6.596;2023-06-01T12:33:39;10.15;;;3.10;;
52962;SDS011;38827;53.024;6.596;2023-06-01T12:36:06;9.30;;;2.55;;
52962;SDS011;38827;53.024;6.596;2023-06-01T12:38:36;10.18;;;3.05;;
52962;SDS011;38827;53.024;6.596;2023-06-01T12:41:13;10.38;;;3.03;;
52962;SDS011;38827;53.024;6.596;2023-06-01T12:43:43;8.88;;;2.45;;
52962;SDS011;38827;53.024;6.596;2023-06-01T12:46:21;8.05;;;2.50;;
52962;SDS011;38827;53.024;6.596;2023-06-01T12:48:49;9.07;;;2.80;;
52962;SDS011;38827;53.024;6.596;2023-06-01T12:51:18;8.02;;;3.20;;
52962;SDS011;38827;53.024;6.596;2023-06-01T12:53:45;7.43;;;2.65;;
52962;SDS011;38827;53.024;6.596;2023-06-01T12:56:11;4.88;;;2.63;;
52962;SDS011;38827;53.024;6.596;2023-06-01T12:58:38;6.50;;;2.58;;
52962;SDS011;38827;53.024;6.596;2023-06-01T13:01:04;6.18;;;2.60;;
52962;SDS011;38827;53.024;6.596;2023-06-01T13:03:30;7.03;;;2.60;;
52962;SDS011;38827;53.024;6.596;2023-06-01T13:05:56;5.32;;;2.17;;
52962;SDS011;38827;53.024;6.596;2023-06-01T13:08:22;7.23;;;2.70;;
52962;SDS011;38827;53.024;6.596;2023-06-01T13:10:48;8.10;;;2.47;;
52962;SDS011;38827;53.024;6.596;2023-06-01T13:13:15;7.47;;;2.35;;
52962;SDS011;38827;53.024;6.596;2023-06-01T13:15:41;5.57;;;2.25;;
52962;SDS011;38827;53.024;6.596;2023-06-01T13:18:08;5.10;;;2.63;;
52962;SDS011;38827;53.024;6.596;2023-06-01T13:20:34;9.15;;;2.95;;
52962;SDS011;38827;53.024;6.596;2023-06-01T13:23:01;6.57;;;2.90;;
52962;SDS011;38827;53.024;6.596;2023-06-01T13:25:27;7.88;;;2.60;;
52962;SDS011;38827;53.024;6.596;2023-06-01T13:27:55;7.03;;;2.90;;
52962;SDS011;38827;53.024;6.596;2023-06-01T13:30:21;10.40;;;2.95;;
52962;SDS011;38827;53.024;6.596;2023-06-01T13:32:47;6.85;;;2.67;;
52962;SDS011;38827;53.024;6.596;2023-06-01T13:37:48;6.85;;;2.40;;
52962;SDS011;38827;53.024;6.596;2023-06-01T13:40:14;9.70;;;2.77;;
52962;SDS011;38827;53.024;6.596;2023-06-01T13:42:43;5.75;;;2.85;;
52962;SDS011;38827;53.024;6.596;2023-06-01T13:45:10;6.93;;;2.92;;
52962;SDS011;38827;53.024;6.596;2023-06-01T13:47:40;8.13;;;2.65;;
52962;SDS011;38827;53.024;6.596;2023-06-01T13:50:06;10.25;;;2.78;;
52962;SDS011;38827;53.024;6.596;2023-06-01T13:52:33;11.07;;;2.95;;
52962;SDS011;38827;53.024;6.596;2023-06-01T13:54:59;7.38;;;2.55;;
52962;SDS011;38827;53.024;6.596;2023-06-01T13:57:25;6.45;;;2.13;;
52962;SDS011;38827;53.024;6.596;2023-06-01T13:59:50;7.50;;;2.40;;
52962;SDS011;38827;53.024;6.596;2023-06-01T14:02:16;9.48;;;2.58;;
52962;SDS011;38827;53.024;6.596;2023-06-01T14:04:42;7.47;;;2.38;;
52962;SDS011;38827;53.024;6.596;2023-06-01T14:07:08;6.80;;;2.40;;
52962;SDS011;38827;53.024;6.596;2023-06-01T14:09:33;7.88;;;2.83;;
52962;SDS011;38827;53.024;6.596;2023-06-01T14:12:02;7.35;;;2.78;;
52962;SDS011;38827;53.024;6.596;2023-06-01T14:14:28;11.38;;;3.10;;
52962;SDS011;38827;53.024;6.596;2023-06-01T14:16:57;10.13;;;2.85;;
52962;SDS011;38827;53.024;6.596;2023-06-01T14:19:23;9.95;;;3.20;;
52962;SDS011;38827;53.024;6.596;2023-06-01T14:21:51;8.25;;;2.70;;
52962;SDS011;38827;53.024;6.596;2023-06-01T14:24:17;8.10;;;2.53;;
52962;SDS011;38827;53.024;6.596;2023-06-01T14:26:43;5.72;;;2.35;;
52962;SDS011;38827;53.024;6.596;2023-06-01T14:29:19;10.30;;;2.72;;
52962;SDS011;38827;53.024;6.596;2023-06-01T14:31:55;6.18;;;2.78;;
52962;SDS011;38827;53.024;6.596;2023-06-01T14:34:27;6.85;;;2.97;;
52962;SDS011;38827;53.024;6.596;2023-06-01T14:36:56;7.10;;;2.83;;
52962;SDS011;38827;53.024;6.596;2023-06-01T14:39:21;7.25;;;2.90;;
52962;SDS011;38827;53.024;6.596;2023-06-01T14:41:47;10.80;;;2.90;;
52962;SDS011;38827;53.024;6.596;2023-06-01T14:44:13;11.23;;;2.90;;
52962;SDS011;38827;53.024;6.596;2023-06-01T14:46:42;8.30;;;2.28;;
52962;SDS011;38827;53.024;6.596;2023-06-01T14:49:12;10.65;;;2.75;;
52962;SDS011;38827;53.024;6.596;2023-06-01T14:54:04;7.70;;;1.90;;
52962;SDS011;38827;53.024;6.596;2023-06-01T14:56:30;8.47;;;1.90;;
52962;SDS011;38827;53.024;6.596;2023-06-01T15:01:22;6.97;;;1.90;;
52962;SDS011;38827;53.024;6.596;2023-06-01T15:03:51;5.15;;;1.67;;
52962;SDS011;38827;53.024;6.596;2023-06-01T15:06:19;6.72;;;2.22;;
52962;SDS011;38827;53.024;6.596;2023-06-01T15:08:45;6.78;;;2.22;;
52962;SDS011;38827;53.024;6.596;2023-06-01T15:11:11;8.50;;;1.70;;
52962;SDS011;38827;53.024;6.596;2023-06-01T15:13:38;6.32;;;2.40;;
52962;SDS011;38827;53.024;6.596;2023-06-01T15:16:04;8.32;;;2.20;;
52962;SDS011;38827;53.024;6.596;2023-06-01T15:18:32;7.75;;;2.80;;
52962;SDS011;38827;53.024;6.596;2023-06-01T15:23:26;6.00;;;1.90;;
52962;SDS011;38827;53.024;6.596;2023-06-01T15:25:53;9.52;;;1.98;;
52962;SDS011;38827;53.024;6.596;2023-06-01T15:28:20;9.00;;;1.65;;
52962;SDS011;38827;53.024;6.596;2023-06-01T15:30:45;5.47;;;1.70;;
52962;SDS011;38827;53.024;6.596;2023-06-01T15:33:14;7.10;;;1.90;;
52962;SDS011;38827;53.024;6.596;2023-06-01T15:35:40;9.48;;;2.03;;
52962;SDS011;38827;53.024;6.596;2023-06-01T15:38:09;5.53;;;1.73;;
52962;SDS011;38827;53.024;6.596;2023-06-01T15:40:35;5.40;;;1.58;;
52962;SDS011;38827;53.024;6.596;2023-06-01T15:43:00;3.80;;;1.55;;
52962;SDS011;38827;53.024;6.596;2023-06-01T15:45:29;5.82;;;1.50;;
52962;SDS011;38827;53.024;6.596;2023-06-01T15:47:55;4.45;;;1.55;;
52962;SDS011;38827;53.024;6.596;2023-06-01T15:50:21;7.95;;;2.10;;
52962;SDS011;38827;53.024;6.596;2023-06-01T15:53:00;5.22;;;1.73;;
52962;SDS011;38827;53.024;6.596;2023-06-01T15:55:28;5.25;;;1.40;;
52962;SDS011;38827;53.024;6.596;2023-06-01T15:57:55;4.28;;;1.67;;
52962;SDS011;38827;53.024;6.596;2023-06-01T16:00:21;4.95;;;1.13;;
52962;SDS011;38827;53.024;6.596;2023-06-01T16:02:47;3.20;;;1.20;;
52962;SDS011;38827;53.024;6.596;2023-06-01T16:05:17;4.20;;;1.25;;
52962;SDS011;38827;53.024;6.596;2023-06-01T16:07:46;5.25;;;1.70;;
52962;SDS011;38827;53.024;6.596;2023-06-01T16:10:11;6.65;;;1.27;;
52962;SDS011;38827;53.024;6.596;2023-06-01T16:15:07;4.13;;;1.23;;
52962;SDS011;38827;53.024;6.596;2023-06-01T16:17:33;4.30;;;1.00;;
52962;SDS011;38827;53.024;6.596;2023-06-01T16:19:59;3.78;;;1.10;;
52962;SDS011;38827;53.024;6.596;2023-06-01T16:22:25;4.55;;;1.10;;
52962;SDS011;38827;53.024;6.596;2023-06-01T16:24:51;4.10;;;1.23;;
52962;SDS011;38827;53.024;6.596;2023-06-01T16:27:16;3.15;;;1.20;;
52962;SDS011;38827;53.024;6.596;2023-06-01T16:29:43;2.60;;;1.10;;
52962;SDS011;38827;53.024;6.596;2023-06-01T16:32:09;6.50;;;1.55;;
52962;SDS011;38827;53.024;6.596;2023-06-01T16:34:35;5.38;;;1.52;;
52962;SDS011;38827;53.024;6.596;2023-06-01T16:37:00;3.45;;;1.70;;
52962;SDS011;38827;53.024;6.596;2023-06-01T16:39:26;8.88;;;1.73;;
52962;SDS011;38827;53.024;6.596;2023-06-01T16:41:52;7.60;;;1.40;;
52962;SDS011;38827;53.024;6.596;2023-06-01T16:44:18;6.80;;;1.50;;
52962;SDS011;38827;53.024;6.596;2023-06-01T16:46:44;4.97;;;1.65;;
52962;SDS011;38827;53.024;6.596;2023-06-01T16:49:10;7.82;;;1.70;;
52962;SDS011;38827;53.024;6.596;2023-06-01T16:51:36;12.45;;;1.70;;
52962;SDS011;38827;53.024;6.596;2023-06-01T16:54:08;8.98;;;1.90;;
52962;SDS011;38827;53.024;6.596;2023-06-01T16:56:34;10.35;;;1.92;;
52962;SDS011;38827;53.024;6.596;2023-06-01T16:58:59;10.38;;;1.67;;
52962;SDS011;38827;53.024;6.596;2023-06-01T17:01:26;9.70;;;1.55;;
52962;SDS011;38827;53.024;6.596;2023-06-01T17:03:52;11.75;;;2.33;;
52962;SDS011;38827;53.024;6.596;2023-06-01T17:06:18;10.10;;;1.73;;
52962;SDS011;38827;53.024;6.596;2023-06-01T17:08:45;9.20;;;2.15;;
52962;SDS011;38827;53.024;6.596;2023-06-01T17:11:11;7.18;;;1.77;;
52962;SDS011;38827;53.024;6.596;2023-06-01T17:13:40;7.18;;;1.65;;
52962;SDS011;38827;53.024;6.596;2023-06-01T17:16:06;7.90;;;2.33;;
52962;SDS011;38827;53.024;6.596;2023-06-01T17:18:31;5.22;;;1.75;;
52962;SDS011;38827;53.024;6.596;2023-06-01T17:20:57;13.80;;;1.98;;
52962;SDS011;38827;53.024;6.596;2023-06-01T17:23:23;9.73;;;1.77;;
52962;SDS011;38827;53.024;6.596;2023-06-01T17:25:49;7.78;;;1.70;;
52962;SDS011;38827;53.024;6.596;2023-06-01T17:28:14;8.85;;;1.60;;
52962;SDS011;38827;53.024;6.596;2023-06-01T17:30:40;15.63;;;2.63;;
52962;SDS011;38827;53.024;6.596;2023-06-01T17:33:07;8.93;;;1.98;;
52962;SDS011;38827;53.024;6.596;2023-06-01T17:35:32;12.05;;;2.13;;
52962;SDS011;38827;53.024;6.596;2023-06-01T17:37:58;11.52;;;2.20;;
52962;SDS011;38827;53.024;6.596;2023-06-01T17:40:27;14.07;;;2.10;;
52962;SDS011;38827;53.024;6.596;2023-06-01T17:42:53;9.95;;;1.85;;
52962;SDS011;38827;53.024;6.596;2023-06-01T17:45:18;10.98;;;2.13;;
52962;SDS011;38827;53.024;6.596;2023-06-01T17:47:44;11.40;;;2.45;;
52962;SDS011;38827;53.024;6.596;2023-06-01T17:50:10;10.90;;;2.20;;
52962;SDS011;38827;53.024;6.596;2023-06-01T17:52:36;8.95;;;2.00;;
52962;SDS011;38827;53.024;6.596;2023-06-01T17:55:01;13.07;;;2.72;;
52962;SDS011;38827;53.024;6.596;2023-06-01T17:57:27;13.50;;;2.53;;
52962;SDS011;38827;53.024;6.596;2023-06-01T17:59:53;12.77;;;2.30;;
52962;SDS011;38827;53.024;6.596;2023-06-01T18:02:19;9.77;;;2.35;;
52962;SDS011;38827;53.024;6.596;2023-06-01T18:04:44;16.80;;;2.65;;
52962;SDS011;38827;53.024;6.596;2023-06-01T18:07:13;13.55;;;2.20;;
52962;SDS011;38827;53.024;6.596;2023-06-01T18:09:44;10.85;;;2.33;;
52962;SDS011;38827;53.024;6.596;2023-06-01T18:12:10;11.63;;;2.33;;
52962;SDS011;38827;53.024;6.596;2023-06-01T18:14:36;14.13;;;3.35;;
52962;SDS011;38827;53.024;6.596;2023-06-01T18:17:04;10.32;;;2.45;;
52962;SDS011;38827;53.024;6.596;2023-06-01T18:19:33;13.70;;;2.40;;
52962;SDS011;38827;53.024;6.596;2023-06-01T18:22:02;12.30;;;2.20;;
52962;SDS011;38827;53.024;6.596;2023-06-01T18:24:31;9.88;;;2.13;;
52962;SDS011;38827;53.024;6.596;2023-06-01T18:26:57;12.55;;;2.17;;
52962;SDS011;38827;53.024;6.596;2023-06-01T18:29:28;11.63;;;2.65;;
52962;SDS011;38827;53.024;6.596;2023-06-01T18:31:53;8.68;;;1.90;;
52962;SDS011;38827;53.024;6.596;2023-06-01T18:34:20;11.18;;;2.28;;
52962;SDS011;38827;53.024;6.596;2023-06-01T18:36:46;13.30;;;2.35;;
52962;SDS011;38827;53.024;6.596;2023-06-01T18:39:12;9.60;;;2.08;;
52962;SDS011;38827;53.024;6.596;2023-06-01T18:41:38;14.57;;;2.63;;
52962;SDS011;38827;53.024;6.596;2023-06-01T18:44:06;11.35;;;2.20;;
52962;SDS011;38827;53.024;6.596;2023-06-01T18:46:36;11.80;;;2.47;;
52962;SDS011;38827;53.024;6.596;2023-06-01T18:49:06;7.75;;;2.28;;
52962;SDS011;38827;53.024;6.596;2023-06-01T18:51:46;13.15;;;2.13;;
52962;SDS011;38827;53.024;6.596;2023-06-01T18:54:18;8.13;;;1.90;;
52962;SDS011;38827;53.024;6.596;2023-06-01T18:56:48;12.60;;;2.60;;
52962;SDS011;38827;53.024;6.596;2023-06-01T18:59:19;12.32;;;2.92;;
52962;SDS011;38827;53.024;6.596;2023-06-01T19:01:45;10.07;;;2.58;;
52962;SDS011;38827;53.024;6.596;2023-06-01T19:04:11;15.45;;;2.75;;
52962;SDS011;38827;53.024;6.596;2023-06-01T19:06:37;11.60;;;2.88;;
52962;SDS011;38827;53.024;6.596;2023-06-01T19:09:04;10.07;;;2.30;;
52962;SDS011;38827;53.024;6.596;2023-06-01T19:11:33;10.95;;;2.95;;
52962;SDS011;38827;53.024;6.596;2023-06-01T19:14:04;13.15;;;2.42;;
52962;SDS011;38827;53.024;6.596;2023-06-01T19:16:34;10.65;;;2.50;;
52962;SDS011;38827;53.024;6.596;2023-06-01T19:21:36;20.80;;;3.30;;
52962;SDS011;38827;53.024;6.596;2023-06-01T19:24:06;15.93;;;2.67;;
52962;SDS011;38827;53.024;6.596;2023-06-01T19:26:38;12.38;;;2.47;;
52962;SDS011;38827;53.024;6.596;2023-06-01T19:29:09;12.52;;;2.35;;
52962;SDS011;38827;53.024;6.596;2023-06-01T19:31:37;15.85;;;2.88;;
52962;SDS011;38827;53.024;6.596;2023-06-01T19:34:05;16.10;;;3.03;;
52962;SDS011;38827;53.024;6.596;2023-06-01T19:45:04;17.17;;;3.10;;
52962;SDS011;38827;53.024;6.596;2023-06-01T19:47:44;12.50;;;3.43;;
52962;SDS011;38827;53.024;6.596;2023-06-01T19:53:03;17.40;;;2.45;;
52962;SDS011;38827;53.024;6.596;2023-06-01T19:55:30;13.10;;;2.88;;
52962;SDS011;38827;53.024;6.596;2023-06-01T19:57:58;17.00;;;3.00;;
52962;SDS011;38827;53.024;6.596;2023-06-01T20:00:24;14.13;;;3.13;;
52962;SDS011;38827;53.024;6.596;2023-06-01T20:02:52;14.45;;;3.30;;
52962;SDS011;38827;53.024;6.596;2023-06-01T20:05:20;13.05;;;3.22;;
52962;SDS011;38827;53.024;6.596;2023-06-01T20:07:54;11.95;;;2.90;;
52962;SDS011;38827;53.024;6.596;2023-06-01T20:12:54;9.32;;;3.00;;
52962;SDS011;38827;53.024;6.596;2023-06-01T20:15:31;20.13;;;3.45;;
52962;SDS011;38827;53.024;6.596;2023-06-01T20:18:01;14.75;;;2.92;;
52962;SDS011;38827;53.024;6.596;2023-06-01T20:20:32;18.38;;;3.00;;
52962;SDS011;38827;53.024;6.596;2023-06-01T20:23:06;14.07;;;3.08;;
52962;SDS011;38827;53.024;6.596;2023-06-01T20:25:38;13.38;;;2.80;;
52962;SDS011;38827;53.024;6.596;2023-06-01T20:28:08;15.98;;;2.83;;
52962;SDS011;38827;53.024;6.596;2023-06-01T20:33:26;16.92;;;3.22;;
52962;SDS011;38827;53.024;6.596;2023-06-01T20:35:52;12.25;;;2.75;;
52962;SDS011;38827;53.024;6.596;2023-06-01T20:41:09;14.65;;;2.65;;